sensor_id;sensor_type;location;lat;lon;timestamp;temperature;humidity
15409;DHT22;7803;48.130;13.788;2023-07-31T03:59:33;23.70;94.40
15409;DHT22;7803;48.130;13.788;2023-07-31T04:02:35;23.70;94.40
15409;DHT22;7803;48.130;13.788;2023-07-31T04:05:38;23.70;94.20
15409;DHT22;7803;48.130;13.788;2023-07-31T04:08:41;23.70;94.20
15409;DHT22;7803;48.130;13.788;2023-07-31T04:11:43;23.70;94.10
15409;DHT22;7803;48.130;13.788;2023-07-31T04:14:46;23.70;94.00
15409;DHT22;7803;48.130;13.788;2023-07-31T04:17:48;23.70;93.90
15409;DHT22;7803;48.130;13.788;2023-07-31T04:20:50;23.60;93.90
15409;DHT22;7803;48.130;13.788;2023-07-31T04:23:52;23.60;93.90
15409;DHT22;7803;48.130;13.788;2023-07-31T04:26:56;23.60;94.30
15409;DHT22;7803;48.130;13.788;2023-07-31T04:29:59;23.60;94.60
15409;DHT22;7803;48.130;13.788;2023-07-31T04:33:01;23.60;94.70
15409;DHT22;7803;48.130;13.788;2023-07-31T04:36:04;23.60;94.70
15409;DHT22;7803;48.130;13.788;2023-07-31T04:39:06;23.70;94.70
15409;DHT22;7803;48.130;13.788;2023-07-31T04:42:08;23.70;94.40
15409;DHT22;7803;48.130;13.788;2023-07-31T04:45:11;23.70;93.90
15409;DHT22;7803;48.130;13.788;2023-07-31T04:48:13;23.70;93.80
15409;DHT22;7803;48.130;13.788;2023-07-31T04:51:15;23.70;93.50
15409;DHT22;7803;48.130;13.788;2023-07-31T04:54:17;23.70;93.40
15409;DHT22;7803;48.130;13.788;2023-07-31T04:57:19;23.70;93.20
15409;DHT22;7803;48.130;13.788;2023-07-31T05:00:23;23.70;93.00
15409;DHT22;7803;48.130;13.788;2023-07-31T05:03:24;23.70;93.00
15409;DHT22;7803;48.130;13.788;2023-07-31T05:06:26;23.70;92.80
15409;DHT22;7803;48.130;13.788;2023-07-31T05:09:28;23.70;92.60
15409;DHT22;7803;48.130;13.788;2023-07-31T05:12:30;23.70;92.50
15409;DHT22;7803;48.130;13.788;2023-07-31T05:15:34;23.70;92.40
15409;DHT22;7803;48.130;13.788;2023-07-31T05:18:36;23.70;92.60
15409;DHT22;7803;48.130;13.788;2023-07-31T05:21:38;23.70;93.00
15409;DHT22;7803;48.130;13.788;2023-07-31T05:24:39;23.70;93.20
15409;DHT22;7803;48.130;13.788;2023-07-31T05:27:41;23.70;93.10
15409;DHT22;7803;48.130;13.788;2023-07-31T05:30:45;23.70;93.30
15409;DHT22;7803;48.130;13.788;2023-07-31T05:33:47;23.80;93.10
15409;DHT22;7803;48.130;13.788;2023-07-31T05:36:50;23.80;92.80
15409;DHT22;7803;48.130;13.788;2023-07-31T05:39:52;23.80;92.70
15409;DHT22;7803;48.130;13.788;2023-07-31T05:42:54;23.80;92.80
15409;DHT22;7803;48.130;13.788;2023-07-31T05:45:57;23.70;92.70
15409;DHT22;7803;48.130;13.788;2023-07-31T05:48:59;23.70;92.80
15409;DHT22;7803;48.130;13.788;2023-07-31T05:52:01;23.80;93.00
15409;DHT22;7803;48.130;13.788;2023-07-31T05:55:04;23.80;92.90
15409;DHT22;7803;48.130;13.788;2023-07-31T05:58:06;23.80;92.80
15409;DHT22;7803;48.130;13.788;2023-07-31T06:01:10;23.80;92.80
15409;DHT22;7803;48.130;13.788;2023-07-31T06:04:11;23.80;92.90
15409;DHT22;7803;48.130;13.788;2023-07-31T06:07:13;23.70;93.00
15409;DHT22;7803;48.130;13.788;2023-07-31T06:10:16;23.80;93.00
15409;DHT22;7803;48.130;13.788;2023-07-31T06:13:18;23.80;93.30
15409;DHT22;7803;48.130;13.788;2023-07-31T06:16:21;23.80;93.40
15409;DHT22;7803;48.130;13.788;2023-07-31T06:19:23;23.80;93.60
15409;DHT22;7803;48.130;13.788;2023-07-31T06:22:25;23.80;93.60
15409;DHT22;7803;48.130;13.788;2023-07-31T06:25:27;23.80;93.50
15409;DHT22;7803;48.130;13.788;2023-07-31T06:28:29;23.80;93.40
15409;DHT22;7803;48.130;13.788;2023-07-31T06:31:33;23.80;93.40
15409;DHT22;7803;48.130;13.788;2023-07-31T06:34:35;23.80;93.50
15409;DHT22;7803;48.130;13.788;2023-07-31T06:37:37;23.80;93.60
15409;DHT22;7803;48.130;13.788;2023-07-31T06:40:40;23.90;93.60
15409;DHT22;7803;48.130;13.788;2023-07-31T06:43:42;23.80;93.50
15409;DHT22;7803;48.130;13.788;2023-07-31T06:46:46;23.90;93.60
15409;DHT22;7803;48.130;13.788;2023-07-31T06:49:48;23.80;93.60
15409;DHT22;7803;48.130;13.788;2023-07-31T06:52:50;23.80;93.60
15409;DHT22;7803;48.130;13.788;2023-07-31T06:55:52;23.90;93.50
15409;DHT22;7803;48.130;13.788;2023-07-31T06:58:53;23.90;93.40
15409;DHT22;7803;48.130;13.788;2023-07-31T07:01:57;23.80;93.00
15409;DHT22;7803;48.130;13.788;2023-07-31T07:04:59;23.90;92.70
15409;DHT22;7803;48.130;13.788;2023-07-31T07:08:01;23.80;92.50
15409;DHT22;7803;48.130;13.788;2023-07-31T07:11:03;23.80;92.30
15409;DHT22;7803;48.130;13.788;2023-07-31T07:14:05;23.90;92.40
15409;DHT22;7803;48.130;13.788;2023-07-31T07:17:08;23.90;92.40
15409;DHT22;7803;48.130;13.788;2023-07-31T07:20:10;23.90;92.40
15409;DHT22;7803;48.130;13.788;2023-07-31T07:23:12;23.90;92.40
15409;DHT22;7803;48.130;13.788;2023-07-31T07:26:14;23.80;92.40
15409;DHT22;7803;48.130;13.788;2023-07-31T07:29:16;23.90;92.60
15409;DHT22;7803;48.130;13.788;2023-07-31T07:32:20;23.90;92.70
15409;DHT22;7803;48.130;13.788;2023-07-31T07:35:22;23.80;92.70
15409;DHT22;7803;48.130;13.788;2023-07-31T07:38:24;23.80;92.60
15409;DHT22;7803;48.130;13.788;2023-07-31T07:41:26;23.90;92.80
15409;DHT22;7803;48.130;13.788;2023-07-31T07:44:28;23.90;92.80
15409;DHT22;7803;48.130;13.788;2023-07-31T07:47:32;23.90;92.80
15409;DHT22;7803;48.130;13.788;2023-07-31T07:50:34;23.90;92.80
15409;DHT22;7803;48.130;13.788;2023-07-31T07:53:35;23.90;92.50
15409;DHT22;7803;48.130;13.788;2023-07-31T07:56:37;23.90;92.30
15409;DHT22;7803;48.130;13.788;2023-07-31T07:59:40;23.90;92.20
15409;DHT22;7803;48.130;13.788;2023-07-31T08:02:43;23.90;92.20
15409;DHT22;7803;48.130;13.788;2023-07-31T08:05:45;23.90;92.10
15409;DHT22;7803;48.130;13.788;2023-07-31T08:08:47;23.90;92.20
15409;DHT22;7803;48.130;13.788;2023-07-31T08:11:49;23.90;92.20
15409;DHT22;7803;48.130;13.788;2023-07-31T08:14:51;23.90;92.20
15409;DHT22;7803;48.130;13.788;2023-07-31T08:17:54;23.90;92.30
15409;DHT22;7803;48.130;13.788;2023-07-31T08:20:56;23.90;92.30
15409;DHT22;7803;48.130;13.788;2023-07-31T08:23:58;23.90;92.30
15409;DHT22;7803;48.130;13.788;2023-07-31T08:27:00;23.90;92.30
15409;DHT22;7803;48.130;13.788;2023-07-31T08:30:03;23.90;92.20
15409;DHT22;7803;48.130;13.788;2023-07-31T08:33:06;23.90;92.20
15409;DHT22;7803;48.130;13.788;2023-07-31T08:36:08;23.90;92.30
15409;DHT22;7803;48.130;13.788;2023-07-31T08:39:10;23.90;92.30
15409;DHT22;7803;48.130;13.788;2023-07-31T08:42:12;23.90;92.20
15409;DHT22;7803;48.130;13.788;2023-07-31T08:45:15;23.90;92.20
15409;DHT22;7803;48.130;13.788;2023-07-31T08:48:20;23.90;92.00
15409;DHT22;7803;48.130;13.788;2023-07-31T08:51:22;23.90;91.80
15409;DHT22;7803;48.130;13.788;2023-07-31T08:54:24;23.90;91.70
15409;DHT22;7803;48.130;13.788;2023-07-31T08:57:30;23.80;91.80
15409;DHT22;7803;48.130;13.788;2023-07-31T09:00:32;23.90;91.70
15409;DHT22;7803;48.130;13.788;2023-07-31T09:03:36;23.90;91.70
15409;DHT22;7803;48.130;13.788;2023-07-31T09:06:39;23.90;91.60
15409;DHT22;7803;48.130;13.788;2023-07-31T09:09:42;23.90;91.60
15409;DHT22;7803;48.130;13.788;2023-07-31T09:12:45;23.90;91.40
15409;DHT22;7803;48.130;13.788;2023-07-31T09:15:47;23.90;91.90
15409;DHT22;7803;48.130;13.788;2023-07-31T09:18:57;23.90;91.50
15409;DHT22;7803;48.130;13.788;2023-07-31T09:21:59;23.90;91.60
15409;DHT22;7803;48.130;13.788;2023-07-31T09:25:14;23.90;91.60
15409;DHT22;7803;48.130;13.788;2023-07-31T09:28:16;23.90;91.80
15409;DHT22;7803;48.130;13.788;2023-07-31T09:31:31;23.90;91.80
15409;DHT22;7803;48.130;13.788;2023-07-31T09:34:38;23.80;91.90
15409;DHT22;7803;48.130;13.788;2023-07-31T09:37:40;23.90;91.90
15409;DHT22;7803;48.130;13.788;2023-07-31T09:40:43;23.90;91.90
15409;DHT22;7803;48.130;13.788;2023-07-31T09:43:53;23.90;91.90
15409;DHT22;7803;48.130;13.788;2023-07-31T09:46:55;23.90;91.90
15409;DHT22;7803;48.130;13.788;2023-07-31T09:49:58;23.90;92.00
15409;DHT22;7803;48.130;13.788;2023-07-31T09:53:00;23.90;92.10
15409;DHT22;7803;48.130;13.788;2023-07-31T09:56:02;23.90;92.10
15409;DHT22;7803;48.130;13.788;2023-07-31T09:59:05;23.90;92.10
15409;DHT22;7803;48.130;13.788;2023-07-31T10:02:09;23.90;92.10
15409;DHT22;7803;48.130;13.788;2023-07-31T10:05:17;23.90;92.10
15409;DHT22;7803;48.130;13.788;2023-07-31T10:08:21;23.90;92.50
15409;DHT22;7803;48.130;13.788;2023-07-31T10:11:24;23.90;92.10
15409;DHT22;7803;48.130;13.788;2023-07-31T10:14:30;23.90;92.10
15409;DHT22;7803;48.130;13.788;2023-07-31T10:17:33;23.90;92.20
15409;DHT22;7803;48.130;13.788;2023-07-31T10:20:38;23.90;92.10
15409;DHT22;7803;48.130;13.788;2023-07-31T10:23:41;23.90;92.10
15409;DHT22;7803;48.130;13.788;2023-07-31T10:26:45;23.90;92.10
15409;DHT22;7803;48.130;13.788;2023-07-31T10:29:49;23.90;92.60
15409;DHT22;7803;48.130;13.788;2023-07-31T10:32:53;23.90;92.20
15409;DHT22;7803;48.130;13.788;2023-07-31T10:36:14;23.90;92.20
15409;DHT22;7803;48.130;13.788;2023-07-31T10:39:36;23.90;92.30
15409;DHT22;7803;48.130;13.788;2023-07-31T10:42:46;23.90;92.30
15409;DHT22;7803;48.130;13.788;2023-07-31T10:45:49;23.90;92.30
15409;DHT22;7803;48.130;13.788;2023-07-31T10:48:57;23.90;92.30
15409;DHT22;7803;48.130;13.788;2023-07-31T10:52:03;23.90;92.30
15409;DHT22;7803;48.130;13.788;2023-07-31T10:55:26;23.90;92.40
15409;DHT22;7803;48.130;13.788;2023-07-31T10:58:28;23.90;92.40
15409;DHT22;7803;48.130;13.788;2023-07-31T11:01:49;23.90;92.40
15409;DHT22;7803;48.130;13.788;2023-07-31T11:05:06;23.90;92.30
15409;DHT22;7803;48.130;13.788;2023-07-31T11:08:14;23.90;92.30
15409;DHT22;7803;48.130;13.788;2023-07-31T11:11:18;23.90;92.20
15409;DHT22;7803;48.130;13.788;2023-07-31T11:14:20;23.90;92.10
15409;DHT22;7803;48.130;13.788;2023-07-31T11:17:25;23.90;92.10
15409;DHT22;7803;48.130;13.788;2023-07-31T11:20:29;23.90;92.10
15409;DHT22;7803;48.130;13.788;2023-07-31T11:23:33;23.90;92.00
15409;DHT22;7803;48.130;13.788;2023-07-31T11:26:35;23.90;92.00
15409;DHT22;7803;48.130;13.788;2023-07-31T11:29:37;23.90;91.80
15409;DHT22;7803;48.130;13.788;2023-07-31T11:32:40;23.90;91.80
15409;DHT22;7803;48.130;13.788;2023-07-31T11:35:43;23.90;91.80
15409;DHT22;7803;48.130;13.788;2023-07-31T11:38:47;23.90;91.90
15409;DHT22;7803;48.130;13.788;2023-07-31T11:41:49;23.90;91.80
15409;DHT22;7803;48.130;13.788;2023-07-31T11:44:51;23.90;91.80
15409;DHT22;7803;48.130;13.788;2023-07-31T11:47:55;24.00;91.40
15409;DHT22;7803;48.130;13.788;2023-07-31T11:50:59;23.90;91.80
15409;DHT22;7803;48.130;13.788;2023-07-31T11:54:03;23.90;91.70
15409;DHT22;7803;48.130;13.788;2023-07-31T11:57:05;23.90;91.70
15409;DHT22;7803;48.130;13.788;2023-07-31T12:00:09;23.90;91.80
15409;DHT22;7803;48.130;13.788;2023-07-31T12:03:13;23.90;91.80
15409;DHT22;7803;48.130;13.788;2023-07-31T12:06:16;23.90;91.80
15409;DHT22;7803;48.130;13.788;2023-07-31T12:09:19;23.90;91.70
15409;DHT22;7803;48.130;13.788;2023-07-31T12:12:26;23.90;91.80
15409;DHT22;7803;48.130;13.788;2023-07-31T12:15:36;23.90;91.70
15409;DHT22;7803;48.130;13.788;2023-07-31T12:18:39;23.90;91.60
15409;DHT22;7803;48.130;13.788;2023-07-31T12:21:41;23.90;91.60
15409;DHT22;7803;48.130;13.788;2023-07-31T12:24:44;23.90;91.60
15409;DHT22;7803;48.130;13.788;2023-07-31T12:27:46;23.90;91.60
15409;DHT22;7803;48.130;13.788;2023-07-31T12:30:49;23.90;91.70
15409;DHT22;7803;48.130;13.788;2023-07-31T12:33:51;23.90;91.60
15409;DHT22;7803;48.130;13.788;2023-07-31T12:36:53;23.90;91.70
15409;DHT22;7803;48.130;13.788;2023-07-31T12:39:57;23.90;91.70
15409;DHT22;7803;48.130;13.788;2023-07-31T12:43:04;23.90;91.60
15409;DHT22;7803;48.130;13.788;2023-07-31T12:46:06;23.90;91.70
15409;DHT22;7803;48.130;13.788;2023-07-31T12:49:09;23.90;91.70
15409;DHT22;7803;48.130;13.788;2023-07-31T12:52:11;23.90;91.50
15409;DHT22;7803;48.130;13.788;2023-07-31T12:55:14;23.90;91.40
15409;DHT22;7803;48.130;13.788;2023-07-31T12:58:17;23.90;91.60
15409;DHT22;7803;48.130;13.788;2023-07-31T13:01:19;23.90;91.60
15409;DHT22;7803;48.130;13.788;2023-07-31T13:04:21;23.90;91.50
15409;DHT22;7803;48.130;13.788;2023-07-31T13:07:23;23.90;91.40
15409;DHT22;7803;48.130;13.788;2023-07-31T13:10:27;23.90;91.20
15409;DHT22;7803;48.130;13.788;2023-07-31T13:13:30;23.90;91.30
15409;DHT22;7803;48.130;13.788;2023-07-31T13:16:32;24.00;91.20
15409;DHT22;7803;48.130;13.788;2023-07-31T13:19:34;23.90;91.00
15409;DHT22;7803;48.130;13.788;2023-07-31T13:22:36;24.00;91.10
15409;DHT22;7803;48.130;13.788;2023-07-31T13:25:39;23.90;91.20
15409;DHT22;7803;48.130;13.788;2023-07-31T13:28:41;24.00;91.30
15409;DHT22;7803;48.130;13.788;2023-07-31T13:31:43;24.00;91.40
15409;DHT22;7803;48.130;13.788;2023-07-31T13:34:45;24.00;91.40
15409;DHT22;7803;48.130;13.788;2023-07-31T13:37:48;24.00;91.60
15409;DHT22;7803;48.130;13.788;2023-07-31T13:40:51;24.00;91.60
15409;DHT22;7803;48.130;13.788;2023-07-31T13:43:53;23.90;91.60
15409;DHT22;7803;48.130;13.788;2023-07-31T13:46:55;23.90;91.60
15409;DHT22;7803;48.130;13.788;2023-07-31T13:49:57;23.90;91.60
15409;DHT22;7803;48.130;13.788;2023-07-31T13:52:59;23.90;91.50
15409;DHT22;7803;48.130;13.788;2023-07-31T13:56:03;23.90;91.60
15409;DHT22;7803;48.130;13.788;2023-07-31T13:59:06;23.90;91.50
15409;DHT22;7803;48.130;13.788;2023-07-31T14:02:08;24.00;91.40
15409;DHT22;7803;48.130;13.788;2023-07-31T14:05:10;23.90;91.40
15409;DHT22;7803;48.130;13.788;2023-07-31T14:08:12;23.90;91.20
15409;DHT22;7803;48.130;13.788;2023-07-31T14:11:15;23.90;91.10
15409;DHT22;7803;48.130;13.788;2023-07-31T14:14:18;23.90;91.10
15409;DHT22;7803;48.130;13.788;2023-07-31T14:17:20;24.00;91.20
15409;DHT22;7803;48.130;13.788;2023-07-31T14:20:22;23.90;91.30
15409;DHT22;7803;48.130;13.788;2023-07-31T14:23:24;23.90;91.30
15409;DHT22;7803;48.130;13.788;2023-07-31T14:26:27;23.90;91.30
15409;DHT22;7803;48.130;13.788;2023-07-31T14:29:30;23.90;91.40
15409;DHT22;7803;48.130;13.788;2023-07-31T14:32:32;24.00;91.60
15409;DHT22;7803;48.130;13.788;2023-07-31T14:35:34;24.00;91.70
15409;DHT22;7803;48.130;13.788;2023-07-31T14:38:36;23.90;91.60
15409;DHT22;7803;48.130;13.788;2023-07-31T14:41:39;24.00;91.80
15409;DHT22;7803;48.130;13.788;2023-07-31T14:44:41;24.00;91.80
15409;DHT22;7803;48.130;13.788;2023-07-31T14:47:43;23.90;91.80
15409;DHT22;7803;48.130;13.788;2023-07-31T14:50:45;23.90;91.70
15409;DHT22;7803;48.130;13.788;2023-07-31T14:53:47;23.90;91.60
15409;DHT22;7803;48.130;13.788;2023-07-31T14:56:50;24.00;91.50
15409;DHT22;7803;48.130;13.788;2023-07-31T14:59:52;24.00;91.40
15409;DHT22;7803;48.130;13.788;2023-07-31T15:02:54;24.00;91.40
15409;DHT22;7803;48.130;13.788;2023-07-31T15:05:56;23.90;91.30
15409;DHT22;7803;48.130;13.788;2023-07-31T15:08:58;23.90;91.30
15409;DHT22;7803;48.130;13.788;2023-07-31T15:12:02;24.00;91.10
15409;DHT22;7803;48.130;13.788;2023-07-31T15:15:05;24.00;91.00
15409;DHT22;7803;48.130;13.788;2023-07-31T15:18:07;23.90;90.80
15409;DHT22;7803;48.130;13.788;2023-07-31T15:21:09;24.00;90.30
15409;DHT22;7803;48.130;13.788;2023-07-31T15:24:11;23.90;90.20
15409;DHT22;7803;48.130;13.788;2023-07-31T15:27:15;24.00;90.60
15409;DHT22;7803;48.130;13.788;2023-07-31T15:30:17;23.90;91.00
15409;DHT22;7803;48.130;13.788;2023-07-31T15:33:19;23.90;91.20
15409;DHT22;7803;48.130;13.788;2023-07-31T15:36:22;23.90;91.60
15409;DHT22;7803;48.130;13.788;2023-07-31T15:39:24;24.00;91.70
15409;DHT22;7803;48.130;13.788;2023-07-31T15:42:27;24.00;91.80
15409;DHT22;7803;48.130;13.788;2023-07-31T15:45:29;24.00;91.80
15409;DHT22;7803;48.130;13.788;2023-07-31T15:48:32;24.00;91.80
15409;DHT22;7803;48.130;13.788;2023-07-31T15:51:34;24.00;91.70
15409;DHT22;7803;48.130;13.788;2023-07-31T15:54:36;24.00;91.70
15409;DHT22;7803;48.130;13.788;2023-07-31T15:57:39;24.00;91.70
15409;DHT22;7803;48.130;13.788;2023-07-31T16:00:41;24.00;91.70
15409;DHT22;7803;48.130;13.788;2023-07-31T16:03:43;24.00;91.70
15409;DHT22;7803;48.130;13.788;2023-07-31T16:06:45;24.00;91.80
15409;DHT22;7803;48.130;13.788;2023-07-31T16:09:47;24.00;91.80
15409;DHT22;7803;48.130;13.788;2023-07-31T16:12:50;24.00;91.60
15409;DHT22;7803;48.130;13.788;2023-07-31T16:15:52;24.00;91.70
15409;DHT22;7803;48.130;13.788;2023-07-31T16:18:54;24.10;91.90
15409;DHT22;7803;48.130;13.788;2023-07-31T16:21:57;24.00;92.10
15409;DHT22;7803;48.130;13.788;2023-07-31T16:24:59;24.00;92.10
15409;DHT22;7803;48.130;13.788;2023-07-31T16:28:03;24.00;92.10
15409;DHT22;7803;48.130;13.788;2023-07-31T16:31:05;24.00;92.30
15409;DHT22;7803;48.130;13.788;2023-07-31T16:34:07;24.00;92.20
15409;DHT22;7803;48.130;13.788;2023-07-31T16:37:11;24.00;92.40
15409;DHT22;7803;48.130;13.788;2023-07-31T16:40:13;24.00;92.20
15409;DHT22;7803;48.130;13.788;2023-07-31T16:43:17;24.00;92.10
15409;DHT22;7803;48.130;13.788;2023-07-31T16:46:19;24.00;92.10
15409;DHT22;7803;48.130;13.788;2023-07-31T16:49:22;24.00;92.40
15409;DHT22;7803;48.130;13.788;2023-07-31T16:52:23;24.00;92.30
15409;DHT22;7803;48.130;13.788;2023-07-31T16:55:25;24.00;92.30
15409;DHT22;7803;48.130;13.788;2023-07-31T16:58:30;24.00;92.10
15409;DHT22;7803;48.130;13.788;2023-07-31T17:01:32;24.00;92.60
15409;DHT22;7803;48.130;13.788;2023-07-31T17:04:34;24.00;92.50
15409;DHT22;7803;48.130;13.788;2023-07-31T17:07:36;24.00;92.60
15409;DHT22;7803;48.130;13.788;2023-07-31T17:10:38;24.00;92.70
15409;DHT22;7803;48.130;13.788;2023-07-31T17:13:41;24.10;92.40
15409;DHT22;7803;48.130;13.788;2023-07-31T17:16:43;24.00;92.40
15409;DHT22;7803;48.130;13.788;2023-07-31T17:19:45;24.00;92.40
15409;DHT22;7803;48.130;13.788;2023-07-31T17:22:47;24.00;92.20
15409;DHT22;7803;48.130;13.788;2023-07-31T17:25:49;24.00;92.00
15409;DHT22;7803;48.130;13.788;2023-07-31T17:28:53;24.00;91.90
15409;DHT22;7803;48.130;13.788;2023-07-31T17:31:56;24.00;92.00
15409;DHT22;7803;48.130;13.788;2023-07-31T17:35:00;24.00;92.00
15409;DHT22;7803;48.130;13.788;2023-07-31T17:38:04;24.00;92.20
15409;DHT22;7803;48.130;13.788;2023-07-31T17:41:07;24.00;92.40
15409;DHT22;7803;48.130;13.788;2023-07-31T17:44:12;24.00;92.60
15409;DHT22;7803;48.130;13.788;2023-07-31T17:47:16;24.00;92.60
15409;DHT22;7803;48.130;13.788;2023-07-31T17:50:20;24.00;92.70
15409;DHT22;7803;48.130;13.788;2023-07-31T17:53:23;24.00;92.70
15409;DHT22;7803;48.130;13.788;2023-07-31T17:56:28;24.00;92.50
15409;DHT22;7803;48.130;13.788;2023-07-31T17:59:34;23.90;92.60
15409;DHT22;7803;48.130;13.788;2023-07-31T18:02:38;24.00;92.70
15409;DHT22;7803;48.130;13.788;2023-07-31T18:05:41;24.00;92.80
15409;DHT22;7803;48.130;13.788;2023-07-31T18:08:45;24.00;92.80
15409;DHT22;7803;48.130;13.788;2023-07-31T18:11:48;23.90;92.50
15409;DHT22;7803;48.130;13.788;2023-07-31T18:14:55;24.00;92.50
15409;DHT22;7803;48.130;13.788;2023-07-31T18:17:59;24.00;92.50
15409;DHT22;7803;48.130;13.788;2023-07-31T18:21:02;24.00;92.60
15409;DHT22;7803;48.130;13.788;2023-07-31T18:24:07;24.00;92.90
15409;DHT22;7803;48.130;13.788;2023-07-31T18:27:11;24.00;92.50
15409;DHT22;7803;48.130;13.788;2023-07-31T18:30:17;24.00;92.80
15409;DHT22;7803;48.130;13.788;2023-07-31T18:33:21;24.00;92.90
15409;DHT22;7803;48.130;13.788;2023-07-31T18:36:24;24.00;93.00
15409;DHT22;7803;48.130;13.788;2023-07-31T18:39:28;24.00;93.00
15409;DHT22;7803;48.130;13.788;2023-07-31T18:42:33;24.00;93.00
15409;DHT22;7803;48.130;13.788;2023-07-31T18:45:38;24.00;93.20
15409;DHT22;7803;48.130;13.788;2023-07-31T18:48:42;24.00;93.10
15409;DHT22;7803;48.130;13.788;2023-07-31T18:51:46;24.00;93.10
15409;DHT22;7803;48.130;13.788;2023-07-31T18:54:49;23.90;93.00
15409;DHT22;7803;48.130;13.788;2023-07-31T18:57:53;24.00;93.00
15409;DHT22;7803;48.130;13.788;2023-07-31T19:00:58;24.00;93.10
15409;DHT22;7803;48.130;13.788;2023-07-31T19:04:02;24.00;93.20
15409;DHT22;7803;48.130;13.788;2023-07-31T19:07:06;24.00;93.20
15409;DHT22;7803;48.130;13.788;2023-07-31T19:10:10;24.00;93.20
15409;DHT22;7803;48.130;13.788;2023-07-31T19:13:13;24.10;93.30
15409;DHT22;7803;48.130;13.788;2023-07-31T19:16:19;24.10;93.40
15409;DHT22;7803;48.130;13.788;2023-07-31T19:19:22;24.00;93.40
15409;DHT22;7803;48.130;13.788;2023-07-31T19:22:26;24.10;93.40
15409;DHT22;7803;48.130;13.788;2023-07-31T19:25:29;24.10;93.50
15409;DHT22;7803;48.130;13.788;2023-07-31T19:28:33;24.10;93.50
15409;DHT22;7803;48.130;13.788;2023-07-31T19:31:38;24.10;93.50
15409;DHT22;7803;48.130;13.788;2023-07-31T19:34:43;24.10;93.50
15409;DHT22;7803;48.130;13.788;2023-07-31T19:37:47;24.10;93.60
15409;DHT22;7803;48.130;13.788;2023-07-31T19:40:51;24.00;93.70
15409;DHT22;7803;48.130;13.788;2023-07-31T19:43:54;24.10;93.80
15409;DHT22;7803;48.130;13.788;2023-07-31T19:47:00;24.10;93.90
15409;DHT22;7803;48.130;13.788;2023-07-31T19:50:04;24.10;94.00
15409;DHT22;7803;48.130;13.788;2023-07-31T19:53:08;24.10;94.20
15409;DHT22;7803;48.130;13.788;2023-07-31T19:56:12;24.10;94.20
15409;DHT22;7803;48.130;13.788;2023-07-31T19:59:15;24.10;94.20
15409;DHT22;7803;48.130;13.788;2023-07-31T20:02:22;24.10;94.20
15409;DHT22;7803;48.130;13.788;2023-07-31T20:05:25;24.10;94.30
15409;DHT22;7803;48.130;13.788;2023-07-31T20:08:29;24.10;94.30
15409;DHT22;7803;48.130;13.788;2023-07-31T20:11:33;24.10;94.30
15409;DHT22;7803;48.130;13.788;2023-07-31T20:14:37;24.10;94.30
15409;DHT22;7803;48.130;13.788;2023-07-31T20:17:44;24.10;94.30
15409;DHT22;7803;48.130;13.788;2023-07-31T20:20:47;24.10;94.40
15409;DHT22;7803;48.130;13.788;2023-07-31T20:23:51;24.10;94.40
15409;DHT22;7803;48.130;13.788;2023-07-31T20:26:55;24.10;94.80
15409;DHT22;7803;48.130;13.788;2023-07-31T20:29:58;24.10;95.50
15409;DHT22;7803;48.130;13.788;2023-07-31T20:33:03;24.10;95.60
15409;DHT22;7803;48.130;13.788;2023-07-31T20:36:07;24.20;95.90
15409;DHT22;7803;48.130;13.788;2023-07-31T20:39:10;24.20;96.40
15409;DHT22;7803;48.130;13.788;2023-07-31T20:42:14;24.10;96.50
15409;DHT22;7803;48.130;13.788;2023-07-31T20:45:19;24.20;96.70
15409;DHT22;7803;48.130;13.788;2023-07-31T20:48:24;24.20;96.80
15409;DHT22;7803;48.130;13.788;2023-07-31T20:51:27;24.20;97.00
15409;DHT22;7803;48.130;13.788;2023-07-31T20:54:30;24.20;97.40
15409;DHT22;7803;48.130;13.788;2023-07-31T20:57:33;24.20;97.30
15409;DHT22;7803;48.130;13.788;2023-07-31T21:00:36;24.20;97.10
15409;DHT22;7803;48.130;13.788;2023-07-31T21:03:41;24.20;97.10
15409;DHT22;7803;48.130;13.788;2023-07-31T21:06:43;24.30;97.00
15409;DHT22;7803;48.130;13.788;2023-07-31T21:09:45;24.30;97.40
15409;DHT22;7803;48.130;13.788;2023-07-31T21:12:48;24.30;96.80
15409;DHT22;7803;48.130;13.788;2023-07-31T21:15:49;24.30;96.60
15409;DHT22;7803;48.130;13.788;2023-07-31T21:18:53;24.30;96.50
15409;DHT22;7803;48.130;13.788;2023-07-31T21:21:55;24.20;96.30
15409;DHT22;7803;48.130;13.788;2023-07-31T21:24:57;24.20;96.40
15409;DHT22;7803;48.130;13.788;2023-07-31T21:27:59;24.30;96.40
15409;DHT22;7803;48.130;13.788;2023-07-31T21:31:08;24.20;96.20
15409;DHT22;7803;48.130;13.788;2023-07-31T21:34:12;24.20;96.10
15409;DHT22;7803;48.130;13.788;2023-07-31T21:37:14;24.20;95.90
15409;DHT22;7803;48.130;13.788;2023-07-31T21:40:16;24.20;95.80
15409;DHT22;7803;48.130;13.788;2023-07-31T21:43:18;24.20;95.80
15409;DHT22;7803;48.130;13.788;2023-07-31T21:46:20;24.20;95.50
15409;DHT22;7803;48.130;13.788;2023-07-31T21:49:23;24.20;95.40
15409;DHT22;7803;48.130;13.788;2023-07-31T21:52:25;24.20;95.40
15409;DHT22;7803;48.130;13.788;2023-07-31T21:55:27;24.20;95.20
15409;DHT22;7803;48.130;13.788;2023-07-31T21:58:29;24.20;95.20
15409;DHT22;7803;48.130;13.788;2023-07-31T22:01:31;24.20;95.20
15409;DHT22;7803;48.130;13.788;2023-07-31T22:04:35;24.20;95.00
15409;DHT22;7803;48.130;13.788;2023-07-31T22:07:38;24.20;95.10
15409;DHT22;7803;48.130;13.788;2023-07-31T22:10:40;24.20;95.00
15409;DHT22;7803;48.130;13.788;2023-07-31T22:13:42;24.30;95.00
15409;DHT22;7803;48.130;13.788;2023-07-31T22:16:44;24.20;95.10
15409;DHT22;7803;48.130;13.788;2023-07-31T22:19:47;24.20;95.20
15409;DHT22;7803;48.130;13.788;2023-07-31T22:22:49;24.30;95.40
15409;DHT22;7803;48.130;13.788;2023-07-31T22:25:52;24.20;95.30
15409;DHT22;7803;48.130;13.788;2023-07-31T22:28:54;24.20;95.30
15409;DHT22;7803;48.130;13.788;2023-07-31T22:31:56;24.20;95.20
15409;DHT22;7803;48.130;13.788;2023-07-31T22:35:00;24.20;95.10
15409;DHT22;7803;48.130;13.788;2023-07-31T22:38:02;24.20;95.70
15409;DHT22;7803;48.130;13.788;2023-07-31T22:41:04;24.20;96.30
15409;DHT22;7803;48.130;13.788;2023-07-31T22:44:06;24.30;96.60
15409;DHT22;7803;48.130;13.788;2023-07-31T22:47:08;24.30;97.00
15409;DHT22;7803;48.130;13.788;2023-07-31T22:50:12;24.20;97.20
15409;DHT22;7803;48.130;13.788;2023-07-31T22:53:14;24.30;97.50
15409;DHT22;7803;48.130;13.788;2023-07-31T22:56:15;24.20;97.60
15409;DHT22;7803;48.130;13.788;2023-07-31T22:59:17;24.30;97.70
15409;DHT22;7803;48.130;13.788;2023-07-31T23:02:19;24.20;97.60
15409;DHT22;7803;48.130;13.788;2023-07-31T23:05:23;24.20;97.20
15409;DHT22;7803;48.130;13.788;2023-07-31T23:08:25;24.30;97.30
15409;DHT22;7803;48.130;13.788;2023-07-31T23:11:27;24.20;97.20
15409;DHT22;7803;48.130;13.788;2023-07-31T23:14:29;24.20;97.10